Time;durP1;ratioP1;P1;durP2;ratioP2;P2;SDS_P1;SDS_P2;PMS_P1;PMS_P2;Temp;Humidity;BMP_temperature;BMP_pressure;BME280_temperature;BME280_humidity;BME280_pressure;Samples;Min_cycle;Max_cycle;Signal;HPM_P1;HPM_P2
2023/07/29 00:02:10;;;;;;;5.37;4.87;;;;;;;;;;5134491;27;20202;-54
2023/07/29 00:04:36;;;;;;;5.90;5.47;;;;;;;;;;5130496;27;20258;-54
2023/07/29 00:07:02;;;;;;;6.10;5.60;;;;;;;;;;5134246;27;20330;-55
2023/07/29 00:09:28;;;;;;;5.13;4.63;;;;;;;;;;5134210;27;20192;-55
2023/07/29 00:11:54;;;;;;;5.27;4.87;;;;;;;;;;5134475;27;20199;-54
2023/07/29 00:14:22;;;;;;;5.73;5.23;;;;;;;;;;5134171;27;20207;-54
2023/07/29 00:16:48;;;;;;;6.77;5.47;;;;;;;;;;5134060;27;20196;-55
2023/07/29 00:19:14;;;;;;;6.17;5.33;;;;;;;;;;5132696;27;20203;-55
2023/07/29 00:21:41;;;;;;;6.33;5.83;;;;;;;;;;5133980;27;20222;-54
2023/07/29 00:24:07;;;;;;;5.80;5.03;;;;;;;;;;5134143;27;20200;-54
2023/07/29 00:26:33;;;;;;;5.43;5.00;;;;;;;;;;5133833;27;20234;-55
2023/07/29 00:28:59;;;;;;;6.13;5.43;;;;;;;;;;5134053;27;20618;-54
2023/07/29 00:31:26;;;;;;;5.97;5.40;;;;;;;;;;5133977;27;20601;-55
2023/07/29 00:33:52;;;;;;;7.53;6.03;;;;;;;;;;5133660;27;20236;-55
2023/07/29 00:36:19;;;;;;;6.57;5.53;;;;;;;;;;5133840;27;20881;-54
2023/07/29 00:38:45;;;;;;;6.37;5.40;;;;;;;;;;5133489;27;20204;-54
2023/07/29 00:41:13;;;;;;;6.20;5.70;;;;;;;;;;5133742;27;20861;-55
2023/07/29 00:43:39;;;;;;;6.37;5.83;;;;;;;;;;5133691;27;20223;-54
2023/07/29 00:46:05;;;;;;;6.77;6.17;;;;;;;;;;5133611;27;20222;-55
2023/07/29 00:48:32;;;;;;;6.07;5.57;;;;;;;;;;5133504;27;20201;-53
2023/07/29 00:50:58;;;;;;;5.93;5.03;;;;;;;;;;5133435;27;20203;-53
2023/07/29 00:53:24;;;;;;;6.07;5.47;;;;;;;;;;5133614;27;20199;-53
2023/07/29 00:55:50;;;;;;;5.97;5.37;;;;;;;;;;5133238;27;20280;-53
2023/07/29 00:58:16;;;;;;;7.13;6.27;;;;;;;;;;5133120;27;20210;-53
2023/07/29 01:00:42;;;;;;;6.23;5.63;;;;;;;;;;5133181;27;20203;-53
2023/07/29 01:03:08;;;;;;;6.23;5.37;;;;;;;;;;5133407;27;20208;-53
2023/07/29 01:05:40;;;;;;;5.90;5.40;;;;;;;;;;5132753;27;20231;-53
2023/07/29 01:08:09;;;;;;;8.80;5.63;;;;;;;;;;5133040;27;20292;-53
2023/07/29 01:10:40;;;;;;;6.00;5.40;;;;;;;;;;5133252;27;20224;-53
2023/07/29 01:13:07;;;;;;;6.00;5.40;;;;;;;;;;5132989;27;20201;-53
2023/07/29 01:15:36;;;;;;;7.07;6.47;;;;;;;;;;5132805;27;20990;-54
2023/07/29 01:18:04;;;;;;;6.00;5.47;;;;;;;;;;5132920;27;20204;-53
2023/07/29 01:20:32;;;;;;;6.00;5.40;;;;;;;;;;5133086;27;20208;-53
2023/07/29 01:22:59;;;;;;;6.00;5.03;;;;;;;;;;5132929;27;20579;-53
2023/07/29 01:25:27;;;;;;;6.27;4.93;;;;;;;;;;5132618;27;20221;-53
2023/07/29 01:27:53;;;;;;;6.77;4.93;;;;;;;;;;5132846;27;20204;-53
2023/07/29 01:30:20;;;;;;;6.20;5.43;;;;;;;;;;5132542;27;20679;-53
2023/07/29 01:32:51;;;;;;;5.50;4.93;;;;;;;;;;5132153;27;20232;-53
2023/07/29 01:35:19;;;;;;;5.70;4.87;;;;;;;;;;5132628;27;20205;-53
2023/07/29 01:37:49;;;;;;;7.73;5.73;;;;;;;;;;5132395;27;20671;-53
2023/07/29 01:40:15;;;;;;;4.93;4.47;;;;;;;;;;5132389;27;20204;-56
2023/07/29 01:42:43;;;;;;;5.23;4.73;;;;;;;;;;5130972;27;20218;-53
2023/07/29 01:45:09;;;;;;;4.87;4.47;;;;;;;;;;5132360;27;20220;-55
2023/07/29 01:47:40;;;;;;;4.83;3.73;;;;;;;;;;5132430;27;20567;-55
2023/07/29 01:50:06;;;;;;;4.97;4.13;;;;;;;;;;5132186;27;20253;-54
2023/07/29 01:52:33;;;;;;;5.47;4.57;;;;;;;;;;5132365;27;20196;-54
2023/07/29 01:54:58;;;;;;;4.20;3.60;;;;;;;;;;5131962;27;21177;-54
2023/07/29 01:57:24;;;;;;;4.60;3.73;;;;;;;;;;5132355;27;20199;-54
2023/07/29 01:59:52;;;;;;;4.87;4.30;;;;;;;;;;5132118;27;20227;-52
2023/07/29 02:02:18;;;;;;;4.40;4.00;;;;;;;;;;5132250;27;20880;-55
2023/07/29 02:04:45;;;;;;;6.17;5.57;;;;;;;;;;5131916;27;20288;-55
2023/07/29 02:07:11;;;;;;;5.10;4.70;;;;;;;;;;5132281;27;20222;-54
2023/07/29 02:09:37;;;;;;;4.43;4.03;;;;;;;;;;5131355;27;20229;-55
2023/07/29 02:12:03;;;;;;;5.03;4.53;;;;;;;;;;5131972;27;20195;-55
2023/07/29 02:14:29;;;;;;;5.10;4.07;;;;;;;;;;5131993;27;20217;-54
2023/07/29 02:16:56;;;;;;;4.77;4.27;;;;;;;;;;5132002;27;20226;-54
2023/07/29 02:19:22;;;;;;;4.23;3.93;;;;;;;;;;5131546;27;20284;-54
2023/07/29 02:21:49;;;;;;;4.60;3.57;;;;;;;;;;5131795;27;20210;-55
2023/07/29 02:24:15;;;;;;;4.47;3.90;;;;;;;;;;5131786;27;20215;-54
2023/07/29 02:26:41;;;;;;;4.97;4.47;;;;;;;;;;5131765;27;20227;-55
2023/07/29 02:29:07;;;;;;;4.93;4.53;;;;;;;;;;5131552;27;20203;-54
2023/07/29 02:31:39;;;;;;;4.00;3.70;;;;;;;;;;5131414;27;20196;-53
2023/07/29 02:34:06;;;;;;;5.67;5.17;;;;;;;;;;5131502;27;20233;-54
2023/07/29 02:36:32;;;;;;;3.93;3.60;;;;;;;;;;5131478;27;20335;-54
2023/07/29 02:38:59;;;;;;;4.27;3.97;;;;;;;;;;5131459;27;20758;-54
2023/07/29 02:41:25;;;;;;;4.20;3.90;;;;;;;;;;5131837;27;20202;-54
2023/07/29 02:43:51;;;;;;;3.97;3.67;;;;;;;;;;5131689;27;20199;-54
2023/07/29 02:46:17;;;;;;;4.03;3.67;;;;;;;;;;5131587;27;20268;-54
2023/07/29 02:48:43;;;;;;;6.10;4.47;;;;;;;;;;5131405;27;20610;-54
2023/07/29 02:51:10;;;;;;;5.87;4.00;;;;;;;;;;5131732;27;20199;-54
2023/07/29 02:53:36;;;;;;;5.03;4.43;;;;;;;;;;5131444;27;20203;-55
2023/07/29 02:56:02;;;;;;;4.40;4.10;;;;;;;;;;5131501;27;20658;-54
2023/07/29 02:58:29;;;;;;;4.33;3.90;;;;;;;;;;5131332;27;20259;-54
2023/07/29 03:01:00;;;;;;;4.20;3.80;;;;;;;;;;5131579;27;20199;-54
2023/07/29 03:03:26;;;;;;;4.07;3.77;;;;;;;;;;5131447;27;20201;-54
2023/07/29 03:05:57;;;;;;;4.30;3.90;;;;;;;;;;5130948;27;20223;-54
2023/07/29 03:08:24;;;;;;;4.07;3.67;;;;;;;;;;5131476;27;20206;-54
2023/07/29 03:10:50;;;;;;;4.23;3.93;;;;;;;;;;5131408;27;20214;-54
2023/07/29 03:13:16;;;;;;;4.33;3.83;;;;;;;;;;5131241;27;20684;-54
2023/07/29 03:15:42;;;;;;;6.13;4.10;;;;;;;;;;5131431;27;20195;-54
2023/07/29 03:18:08;;;;;;;4.27;3.40;;;;;;;;;;5131276;27;20529;-54
2023/07/29 03:20:35;;;;;;;4.07;3.47;;;;;;;;;;5131110;27;20194;-54
2023/07/29 03:23:02;;;;;;;5.60;5.00;;;;;;;;;;5133058;27;20282;-54
2023/07/29 03:25:30;;;;;;;4.70;4.20;;;;;;;;;;5135095;27;20238;-54
2023/07/29 03:27:56;;;;;;;4.57;3.80;;;;;;;;;;5135317;27;20643;-54
2023/07/29 03:30:22;;;;;;;4.40;3.97;;;;;;;;;;5134849;27;20182;-54
2023/07/29 03:32:49;;;;;;;5.67;4.40;;;;;;;;;;5134741;27;20242;-54
2023/07/29 03:35:15;;;;;;;4.03;3.73;;;;;;;;;;5134527;27;20200;-54
2023/07/29 03:37:41;;;;;;;3.90;3.50;;;;;;;;;;5134532;27;20305;-54
2023/07/29 03:40:09;;;;;;;4.10;3.80;;;;;;;;;;5134811;27;20193;-54
2023/07/29 03:42:36;;;;;;;3.77;3.47;;;;;;;;;;5132596;27;20869;-53
2023/07/29 03:45:02;;;;;;;4.10;3.67;;;;;;;;;;5134757;27;20199;-53
2023/07/29 03:47:28;;;;;;;5.83;3.67;;;;;;;;;;5134709;27;20194;-54
2023/07/29 03:49:54;;;;;;;3.40;3.10;;;;;;;;;;5134664;27;20665;-54
2023/07/29 03:52:20;;;;;;;3.80;3.10;;;;;;;;;;5134681;27;20195;-54
2023/07/29 03:54:46;;;;;;;3.57;2.90;;;;;;;;;;5134669;27;20208;-54
2023/07/29 03:57:12;;;;;;;4.50;3.57;;;;;;;;;;5134714;27;20715;-54
2023/07/29 03:59:40;;;;;;;5.77;5.23;;;;;;;;;;5134558;27;20719;-54
2023/07/29 04:02:06;;;;;;;3.90;3.50;;;;;;;;;;5134582;27;20203;-54
2023/07/29 04:04:32;;;;;;;4.40;3.47;;;;;;;;;;5134310;27;20735;-54
2023/07/29 04:06:58;;;;;;;3.73;3.43;;;;;;;;;;5134359;27;20257;-54
2023/07/29 04:09:24;;;;;;;4.43;3.23;;;;;;;;;;5134524;27;20203;-54
2023/07/29 04:11:50;;;;;;;3.20;2.70;;;;;;;;;;5134290;27;20601;-55
2023/07/29 04:14:16;;;;;;;3.37;3.07;;;;;;;;;;5134343;27;20191;-55
2023/07/29 04:16:43;;;;;;;5.50;2.80;;;;;;;;;;5134367;27;20199;-55
2023/07/29 04:19:09;;;;;;;7.63;3.67;;;;;;;;;;5134092;27;20295;-53
2023/07/29 04:21:35;;;;;;;4.10;3.27;;;;;;;;;;5134056;27;20279;-54
2023/07/29 04:24:01;;;;;;;3.90;3.57;;;;;;;;;;5133940;27;20211;-54
2023/07/29 04:26:27;;;;;;;3.47;3.17;;;;;;;;;;5133930;27;20226;-55
2023/07/29 04:28:53;;;;;;;4.67;3.40;;;;;;;;;;5134054;27;20207;-54
2023/07/29 04:31:19;;;;;;;3.60;3.10;;;;;;;;;;5133621;27;20196;-54
2023/07/29 04:33:46;;;;;;;4.00;3.60;;;;;;;;;;5133124;27;20245;-54
2023/07/29 04:36:12;;;;;;;3.40;3.10;;;;;;;;;;5134044;27;20197;-52
2023/07/29 04:38:39;;;;;;;4.23;3.17;;;;;;;;;;5133686;27;20269;-52
2023/07/29 04:41:06;;;;;;;3.27;3.07;;;;;;;;;;5133758;27;20195;-52
2023/07/29 04:43:33;;;;;;;3.73;3.43;;;;;;;;;;5133618;27;20202;-52
2023/07/29 04:45:59;;;;;;;7.33;3.40;;;;;;;;;;5133376;27;20268;-53
2023/07/29 04:48:25;;;;;;;3.70;3.40;;;;;;;;;;5133524;27;20243;-53
2023/07/29 04:50:52;;;;;;;3.63;3.30;;;;;;;;;;5133198;27;20203;-53
2023/07/29 04:53:18;;;;;;;3.17;2.97;;;;;;;;;;5133409;27;20226;-53
2023/07/29 04:55:44;;;;;;;3.40;3.10;;;;;;;;;;5133584;27;20272;-53
2023/07/29 04:58:10;;;;;;;4.23;2.60;;;;;;;;;;5133447;27;20195;-53
2023/07/29 05:00:36;;;;;;;4.23;2.93;;;;;;;;;;5133423;27;20612;-53
2023/07/29 05:03:03;;;;;;;3.30;3.00;;;;;;;;;;5132836;27;20195;-53
2023/07/29 05:05:29;;;;;;;3.17;2.87;;;;;;;;;;5133274;27;20210;-53
2023/07/29 05:07:56;;;;;;;3.13;2.90;;;;;;;;;;5133327;27;20187;-53
2023/07/29 05:10:22;;;;;;;3.03;2.83;;;;;;;;;;5132890;27;20652;-53
2023/07/29 05:12:48;;;;;;;4.67;3.30;;;;;;;;;;5132934;27;20235;-54
2023/07/29 05:15:14;;;;;;;4.87;3.20;;;;;;;;;;5133100;27;20290;-53
2023/07/29 05:17:40;;;;;;;3.67;3.37;;;;;;;;;;5133231;27;20182;-53
2023/07/29 05:20:07;;;;;;;4.13;3.27;;;;;;;;;;5132624;27;20192;-54
2023/07/29 05:22:33;;;;;;;3.30;3.00;;;;;;;;;;5132767;27;20202;-53
2023/07/29 05:25:01;;;;;;;3.50;3.20;;;;;;;;;;5132839;27;20223;-53
2023/07/29 05:27:27;;;;;;;5.63;3.23;;;;;;;;;;5132753;27;20290;-53
2023/07/29 05:29:53;;;;;;;3.33;3.13;;;;;;;;;;5132700;27;20196;-53
2023/07/29 05:32:19;;;;;;;3.80;3.40;;;;;;;;;;5132553;27;20276;-53
2023/07/29 05:34:45;;;;;;;3.60;3.30;;;;;;;;;;5132619;27;20200;-53
2023/07/29 05:37:11;;;;;;;3.60;3.30;;;;;;;;;;5132699;27;20212;-53
2023/07/29 05:39:37;;;;;;;2.90;2.70;;;;;;;;;;5132418;27;20310;-53
2023/07/29 05:42:05;;;;;;;4.00;3.40;;;;;;;;;;5132514;27;20184;-53
2023/07/29 05:44:31;;;;;;;3.23;2.90;;;;;;;;;;5131623;27;20208;-53
2023/07/29 05:46:57;;;;;;;3.40;3.10;;;;;;;;;;5132015;27;20219;-53
2023/07/29 05:49:23;;;;;;;3.87;3.00;;;;;;;;;;5132263;27;20245;-53
2023/07/29 05:51:51;;;;;;;3.10;2.80;;;;;;;;;;5132423;27;20197;-53
2023/07/29 05:54:18;;;;;;;3.40;3.20;;;;;;;;;;5132289;27;20216;-53
2023/07/29 05:56:44;;;;;;;3.73;3.43;;;;;;;;;;5132201;27;20204;-54
2023/07/29 05:59:12;;;;;;;7.93;4.03;;;;;;;;;;5132317;27;20557;-53
2023/07/29 06:01:38;;;;;;;5.60;3.77;;;;;;;;;;5132067;27;20207;-53
2023/07/29 06:04:04;;;;;;;4.63;3.53;;;;;;;;;;5131832;27;20296;-53
2023/07/29 06:06:30;;;;;;;3.70;3.40;;;;;;;;;;5131982;27;20602;-53
2023/07/29 06:08:56;;;;;;;4.23;3.53;;;;;;;;;;5132054;27;20588;-53
2023/07/29 06:11:22;;;;;;;3.30;3.03;;;;;;;;;;5132082;27;20237;-53
2023/07/29 06:13:48;;;;;;;3.93;3.63;;;;;;;;;;5131615;27;20668;-53
2023/07/29 06:16:15;;;;;;;4.13;3.60;;;;;;;;;;5131909;27;20196;-53
2023/07/29 06:18:41;;;;;;;4.00;3.60;;;;;;;;;;5131904;27;20203;-53
2023/07/29 06:21:08;;;;;;;3.80;3.50;;;;;;;;;;5131789;27;20197;-53
2023/07/29 06:23:34;;;;;;;4.20;3.73;;;;;;;;;;5131625;27;20199;-53
2023/07/29 06:26:00;;;;;;;4.60;4.20;;;;;;;;;;5131702;27;20326;-53
2023/07/29 06:28:26;;;;;;;5.20;3.90;;;;;;;;;;5132024;27;20226;-53
2023/07/29 06:30:52;;;;;;;5.67;4.47;;;;;;;;;;5131659;27;20207;-53
2023/07/29 06:33:19;;;;;;;5.70;5.17;;;;;;;;;;5131176;27;20274;-53
2023/07/29 06:35:45;;;;;;;5.17;4.63;;;;;;;;;;5131681;27;20201;-53
2023/07/29 06:38:11;;;;;;;6.03;5.53;;;;;;;;;;5131530;28;20282;-53
2023/07/29 06:40:37;;;;;;;5.27;4.87;;;;;;;;;;5131460;28;20300;-53
2023/07/29 06:43:03;;;;;;;5.17;4.77;;;;;;;;;;5131272;28;20200;-53
2023/07/29 06:45:29;;;;;;;5.23;4.83;;;;;;;;;;5131680;28;20198;-53
2023/07/29 06:47:55;;;;;;;5.23;4.83;;;;;;;;;;5131528;28;20687;-53
2023/07/29 06:50:23;;;;;;;5.50;5.10;;;;;;;;;;5131467;28;20193;-53
2023/07/29 06:52:49;;;;;;;5.73;5.07;;;;;;;;;;5131272;28;20871;-53
2023/07/29 06:55:15;;;;;;;6.10;5.60;;;;;;;;;;5131462;28;20208;-53
2023/07/29 06:57:41;;;;;;;5.53;5.03;;;;;;;;;;5134925;27;20186;-53
2023/07/29 07:00:09;;;;;;;4.93;4.53;;;;;;;;;;5135518;27;20656;-54
2023/07/29 07:02:35;;;;;;;5.47;4.80;;;;;;;;;;5135586;27;20325;-53
2023/07/29 07:05:01;;;;;;;5.07;4.67;;;;;;;;;;5135334;27;20217;-53
2023/07/29 07:07:28;;;;;;;9.57;5.50;;;;;;;;;;5135577;27;20259;-53
2023/07/29 07:09:54;;;;;;;6.23;5.77;;;;;;;;;;5135553;27;21303;-53
2023/07/29 07:12:20;;;;;;;6.70;6.20;;;;;;;;;;5135412;27;20210;-53
2023/07/29 07:14:46;;;;;;;5.93;5.53;;;;;;;;;;5135160;27;20258;-53
2023/07/29 07:17:12;;;;;;;6.20;5.70;;;;;;;;;;5135507;27;20224;-53
2023/07/29 07:19:38;;;;;;;6.80;6.20;;;;;;;;;;5135141;27;20231;-53
2023/07/29 07:22:04;;;;;;;7.07;6.47;;;;;;;;;;5135031;27;20308;-53
2023/07/29 07:24:31;;;;;;;6.27;5.77;;;;;;;;;;5135226;27;20348;-53
2023/07/29 07:26:58;;;;;;;6.00;5.60;;;;;;;;;;5135272;27;20221;-53
2023/07/29 07:29:24;;;;;;;8.03;6.53;;;;;;;;;;5135079;27;20770;-53
2023/07/29 07:31:52;;;;;;;8.17;7.37;;;;;;;;;;5134846;27;20288;-53
2023/07/29 07:34:18;;;;;;;7.10;6.50;;;;;;;;;;5134957;27;20315;-53
2023/07/29 07:36:44;;;;;;;7.27;6.57;;;;;;;;;;5134933;27;20194;-53
2023/07/29 07:39:10;;;;;;;8.63;7.93;;;;;;;;;;5134877;27;20204;-55
2023/07/29 07:41:38;;;;;;;9.23;8.47;;;;;;;;;;5132545;27;20206;-53
2023/07/29 07:44:04;;;;;;;7.90;7.30;;;;;;;;;;5134863;27;20246;-54
2023/07/29 07:46:30;;;;;;;9.80;8.90;;;;;;;;;;5134347;27;20220;-53
2023/07/29 07:48:56;;;;;;;10.03;8.60;;;;;;;;;;5134690;27;20197;-53
2023/07/29 07:51:22;;;;;;;8.77;7.93;;;;;;;;;;5134535;27;20657;-54
2023/07/29 07:53:49;;;;;;;8.30;7.60;;;;;;;;;;5134494;27;20197;-55
2023/07/29 07:56:15;;;;;;;9.00;8.30;;;;;;;;;;5134528;27;20205;-54
2023/07/29 07:58:42;;;;;;;9.10;8.30;;;;;;;;;;5134625;27;20611;-53
2023/07/29 08:01:09;;;;;;;9.13;8.37;;;;;;;;;;5134353;27;20197;-54
2023/07/29 08:03:36;;;;;;;10.13;9.23;;;;;;;;;;5134203;27;20217;-54
2023/07/29 08:06:02;;;;;;;11.33;10.37;;;;;;;;;;5134252;27;20225;-53
2023/07/29 08:08:28;;;;;;;8.93;8.23;;;;;;;;;;5133212;27;20229;-53
2023/07/29 08:10:54;;;;;;;11.37;10.33;;;;;;;;;;5134419;27;20194;-54
2023/07/29 08:13:20;;;;;;;10.80;9.80;;;;;;;;;;5134221;27;20198;-54
2023/07/29 08:15:48;;;;;;;10.37;9.57;;;;;;;;;;5134160;27;20193;-54
2023/07/29 08:18:15;;;;;;;9.50;8.70;;;;;;;;;;5133798;27;20683;-53
2023/07/29 08:20:41;;;;;;;12.50;11.20;;;;;;;;;;5134083;27;20193;-54
2023/07/29 08:23:07;;;;;;;13.27;11.93;;;;;;;;;;5134101;27;20292;-54
2023/07/29 08:25:34;;;;;;;12.07;10.97;;;;;;;;;;5133788;27;20209;-53
2023/07/29 08:28:00;;;;;;;12.03;11.03;;;;;;;;;;5133970;27;20213;-53
2023/07/29 08:30:26;;;;;;;11.20;10.30;;;;;;;;;;5133877;27;20231;-53
2023/07/29 08:32:53;;;;;;;12.33;11.23;;;;;;;;;;5133294;27;20377;-53
2023/07/29 08:35:19;;;;;;;14.07;12.87;;;;;;;;;;5133649;27;20204;-54
2023/07/29 08:37:45;;;;;;;13.60;12.33;;;;;;;;;;5133465;27;20197;-53
2023/07/29 08:40:11;;;;;;;13.40;12.30;;;;;;;;;;5133238;27;20193;-53
2023/07/29 08:42:39;;;;;;;13.23;12.03;;;;;;;;;;5133456;27;20653;-54
2023/07/29 08:45:08;;;;;;;12.80;11.70;;;;;;;;;;5133279;27;20247;-54
2023/07/29 08:47:34;;;;;;;12.17;11.17;;;;;;;;;;5133223;27;20287;-54
2023/07/29 08:50:01;;;;;;;13.83;12.53;;;;;;;;;;5133550;27;20189;-53
2023/07/29 08:52:28;;;;;;;12.23;11.13;;;;;;;;;;5133431;27;20607;-54
2023/07/29 08:54:54;;;;;;;12.20;11.03;;;;;;;;;;5133483;27;20244;-53
2023/07/29 08:57:20;;;;;;;12.80;11.80;;;;;;;;;;5133137;27;20217;-56
2023/07/29 08:59:46;;;;;;;10.70;9.90;;;;;;;;;;5130923;27;20649;-56
2023/07/29 09:02:12;;;;;;;11.57;10.57;;;;;;;;;;5133195;27;20195;-54
2023/07/29 09:04:39;;;;;;;11.20;10.20;;;;;;;;;;5133106;27;20196;-57
2023/07/29 09:07:07;;;;;;;9.67;8.90;;;;;;;;;;5133036;27;20223;-54
2023/07/29 09:09:33;;;;;;;9.67;8.77;;;;;;;;;;5133032;27;20243;-53
2023/07/29 09:11:59;;;;;;;10.70;9.80;;;;;;;;;;5133021;27;20189;-53
2023/07/29 09:14:25;;;;;;;9.53;8.73;;;;;;;;;;5132809;27;20192;-53
2023/07/29 09:16:51;;;;;;;9.73;8.93;;;;;;;;;;5132912;27;20217;-53
2023/07/29 09:19:17;;;;;;;11.47;10.27;;;;;;;;;;5132763;27;20197;-53
2023/07/29 09:21:46;;;;;;;9.70;8.90;;;;;;;;;;5132762;27;20258;-53
2023/07/29 09:24:16;;;;;;;9.93;9.03;;;;;;;;;;5130749;27;20246;-53
2023/07/29 09:26:49;;;;;;;10.37;9.33;;;;;;;;;;5132641;27;20229;-53
2023/07/29 09:29:15;;;;;;;9.23;8.40;;;;;;;;;;5132142;27;20198;-52
2023/07/29 09:31:41;;;;;;;9.83;8.97;;;;;;;;;;5132617;27;20208;-52
2023/07/29 09:34:08;;;;;;;9.43;8.27;;;;;;;;;;5131932;27;20594;-52
2023/07/29 09:36:35;;;;;;;10.27;7.83;;;;;;;;;;5132437;27;20255;-53
2023/07/29 09:39:01;;;;;;;7.10;6.40;;;;;;;;;;5132321;27;20198;-53
2023/07/29 09:41:32;;;;;;;9.77;7.23;;;;;;;;;;5132604;27;20197;-53
2023/07/29 09:43:59;;;;;;;8.60;7.67;;;;;;;;;;5132430;27;20201;-53
2023/07/29 09:46:26;;;;;;;9.37;8.37;;;;;;;;;;5132191;27;20229;-53
2023/07/29 09:48:54;;;;;;;12.00;10.90;;;;;;;;;;5132200;27;20193;-52
2023/07/29 09:51:20;;;;;;;12.20;10.63;;;;;;;;;;5132064;27;20649;-54
2023/07/29 09:53:47;;;;;;;13.60;12.37;;;;;;;;;;5131935;27;20200;-54
2023/07/29 09:56:13;;;;;;;14.23;12.40;;;;;;;;;;5132315;27;20204;-54
2023/07/29 09:58:40;;;;;;;15.77;14.13;;;;;;;;;;5131987;27;20250;-52
2023/07/29 10:01:07;;;;;;;14.53;13.23;;;;;;;;;;5131676;27;20680;-52
2023/07/29 10:03:34;;;;;;;14.73;13.23;;;;;;;;;;5131743;27;20253;-52
2023/07/29 10:06:00;;;;;;;10.70;9.80;;;;;;;;;;5131490;27;20290;-52
2023/07/29 10:08:27;;;;;;;10.27;9.27;;;;;;;;;;5132036;27;20197;-52
2023/07/29 10:10:54;;;;;;;10.10;9.27;;;;;;;;;;5131735;27;20208;-53
2023/07/29 10:13:20;;;;;;;9.17;8.43;;;;;;;;;;5131772;27;20248;-53
2023/07/29 10:15:48;;;;;;;10.33;9.10;;;;;;;;;;5131707;27;20193;-53
2023/07/29 10:18:15;;;;;;;9.97;9.07;;;;;;;;;;5130060;27;20198;-53
2023/07/29 10:20:43;;;;;;;9.30;8.50;;;;;;;;;;5131929;27;20201;-53
2023/07/29 10:23:10;;;;;;;8.47;7.77;;;;;;;;;;5131671;27;20186;-53
2023/07/29 10:25:39;;;;;;;9.57;8.73;;;;;;;;;;5131803;27;20213;-53
2023/07/29 10:28:06;;;;;;;8.03;7.43;;;;;;;;;;5131752;27;20189;-54
2023/07/29 10:30:33;;;;;;;8.23;7.53;;;;;;;;;;5131488;27;20206;-53
2023/07/29 10:33:02;;;;;;;6.80;6.13;;;;;;;;;;5131403;27;20258;-54
2023/07/29 10:35:29;;;;;;;7.53;6.83;;;;;;;;;;5131709;27;20200;-54
2023/07/29 10:37:55;;;;;;;8.27;7.47;;;;;;;;;;5131723;27;20190;-53
2023/07/29 10:40:21;;;;;;;6.70;6.20;;;;;;;;;;5131713;27;20273;-54
2023/07/29 10:43:01;;;;;;;5.80;5.40;;;;;;;;;;5131544;27;20599;-53
2023/07/29 10:45:36;;;;;;;5.30;4.90;;;;;;;;;;5131546;27;20227;-53
2023/07/29 10:48:06;;;;;;;7.37;5.70;;;;;;;;;;5130764;27;20224;-54
2023/07/29 10:50:32;;;;;;;6.80;6.10;;;;;;;;;;5131059;27;20258;-54
2023/07/29 10:52:58;;;;;;;4.20;3.80;;;;;;;;;;5131442;27;20190;-54
2023/07/29 10:55:26;;;;;;;4.50;4.10;;;;;;;;;;5131612;27;20678;-55
2023/07/29 10:57:52;;;;;;;4.47;4.07;;;;;;;;;;5131295;27;20621;-54
2023/07/29 11:00:20;;;;;;;4.50;4.07;;;;;;;;;;5131342;27;20690;-54
2023/07/29 11:02:57;;;;;;;4.53;4.13;;;;;;;;;;5131026;27;20204;-54
2023/07/29 11:05:24;;;;;;;3.50;3.20;;;;;;;;;;5131779;27;20223;-54
2023/07/29 11:07:50;;;;;;;4.37;3.50;;;;;;;;;;5130940;27;20228;-54
2023/07/29 11:10:16;;;;;;;3.23;3.00;;;;;;;;;;5131427;27;20235;-53
2023/07/29 11:12:47;;;;;;;3.40;3.10;;;;;;;;;;5131448;27;20685;-53
2023/07/29 11:15:17;;;;;;;5.20;4.80;;;;;;;;;;5131183;27;20201;-54
2023/07/29 11:17:44;;;;;;;2.07;1.90;;;;;;;;;;5131151;27;20352;-54
2023/07/29 11:20:13;;;;;;;2.50;1.93;;;;;;;;;;5131317;27;20197;-55
2023/07/29 11:22:41;;;;;;;2.20;2.00;;;;;;;;;;5131070;27;20719;-55
2023/07/29 11:25:08;;;;;;;1.80;1.70;;;;;;;;;;5130916;27;20209;-55
2023/07/29 11:27:34;;;;;;;1.50;1.40;;;;;;;;;;5131084;27;20736;-55
2023/07/29 11:30:02;;;;;;;1.40;1.27;;;;;;;;;;5130991;27;20208;-56
2023/07/29 11:32:28;;;;;;;1.63;1.30;;;;;;;;;;5130948;27;20665;-55
2023/07/29 11:34:54;;;;;;;1.10;1.10;;;;;;;;;;5130822;27;20273;-55
2023/07/29 11:37:23;;;;;;;2.93;1.30;;;;;;;;;;5130998;27;20936;-55
2023/07/29 11:39:51;;;;;;;2.83;1.20;;;;;;;;;;5130825;27;20197;-54
2023/07/29 11:42:17;;;;;;;3.10;1.27;;;;;;;;;;5131075;27;20206;-55
2023/07/29 11:44:43;;;;;;;1.30;1.13;;;;;;;;;;5134358;27;20260;-55
2023/07/29 11:47:09;;;;;;;2.57;1.20;;;;;;;;;;5134242;27;20226;-55
2023/07/29 11:49:35;;;;;;;2.23;1.30;;;;;;;;;;5134656;27;20203;-55
2023/07/29 11:52:03;;;;;;;1.57;1.20;;;;;;;;;;5134447;27;20208;-54
2023/07/29 11:54:29;;;;;;;1.20;1.10;;;;;;;;;;5134476;27;20560;-54
2023/07/29 11:56:56;;;;;;;1.90;1.50;;;;;;;;;;5132560;27;20724;-54
2023/07/29 11:59:23;;;;;;;1.57;1.10;;;;;;;;;;5134572;27;20684;-55
2023/07/29 12:01:49;;;;;;;1.33;1.20;;;;;;;;;;5134409;27;20197;-55
2023/07/29 12:04:16;;;;;;;1.30;1.20;;;;;;;;;;5134259;27;20714;-56
2023/07/29 12:06:42;;;;;;;1.20;1.10;;;;;;;;;;5134524;27;20747;-56
2023/07/29 12:09:09;;;;;;;1.10;1.03;;;;;;;;;;5133094;27;20662;-56
2023/07/29 12:11:35;;;;;;;1.30;1.20;;;;;;;;;;5134369;27;20199;-54
2023/07/29 12:14:02;;;;;;;3.57;1.77;;;;;;;;;;5133719;27;20631;-54
2023/07/29 12:16:34;;;;;;;1.60;1.50;;;;;;;;;;5134160;27;20204;-55
2023/07/29 12:19:00;;;;;;;3.53;1.57;;;;;;;;;;5133819;27;20277;-54
2023/07/29 12:21:26;;;;;;;2.83;1.57;;;;;;;;;;5134186;27;20204;-54
2023/07/29 12:23:52;;;;;;;2.20;1.30;;;;;;;;;;5134110;27;20195;-55
2023/07/29 12:26:18;;;;;;;2.63;1.60;;;;;;;;;;5133650;27;20266;-55
2023/07/29 12:28:47;;;;;;;1.40;1.30;;;;;;;;;;5134022;27;20210;-55
2023/07/29 12:31:14;;;;;;;1.70;1.40;;;;;;;;;;5133640;27;20732;-54
2023/07/29 12:33:42;;;;;;;4.07;1.70;;;;;;;;;;5133727;27;20275;-54
2023/07/29 12:36:08;;;;;;;3.13;1.80;;;;;;;;;;5133706;27;20575;-54
2023/07/29 12:38:34;;;;;;;1.53;1.37;;;;;;;;;;5133616;27;20181;-55
2023/07/29 12:41:00;;;;;;;1.53;1.30;;;;;;;;;;5133618;27;20231;-55
2023/07/29 12:43:26;;;;;;;1.60;1.37;;;;;;;;;;5133742;27;20274;-55
2023/07/29 12:45:54;;;;;;;1.40;1.30;;;;;;;;;;5133532;27;20226;-55
2023/07/29 12:48:21;;;;;;;1.30;1.00;;;;;;;;;;5133617;27;20201;-55
2023/07/29 12:50:47;;;;;;;1.63;1.10;;;;;;;;;;5133630;27;20228;-54
2023/07/29 12:53:13;;;;;;;2.20;1.33;;;;;;;;;;5133156;27;20246;-56
2023/07/29 12:55:39;;;;;;;2.23;1.40;;;;;;;;;;5133063;27;20201;-54
2023/07/29 12:58:05;;;;;;;1.50;1.40;;;;;;;;;;5133298;27;20679;-55
2023/07/29 13:00:31;;;;;;;2.73;1.50;;;;;;;;;;5133340;27;20245;-55
2023/07/29 13:02:57;;;;;;;1.47;1.37;;;;;;;;;;5133069;27;20253;-55
2023/07/29 13:05:25;;;;;;;2.80;1.70;;;;;;;;;;5133285;27;20200;-55
2023/07/29 13:07:51;;;;;;;2.30;1.87;;;;;;;;;;5133139;27;20232;-55
2023/07/29 13:10:17;;;;;;;2.77;1.50;;;;;;;;;;5133047;27;20227;-55
2023/07/29 13:12:44;;;;;;;1.80;1.40;;;;;;;;;;5133129;27;20199;-55
2023/07/29 13:15:10;;;;;;;2.13;1.33;;;;;;;;;;5133004;27;20200;-56
2023/07/29 13:17:37;;;;;;;1.47;1.10;;;;;;;;;;5127710;27;20191;-54
2023/07/29 13:20:04;;;;;;;1.47;1.37;;;;;;;;;;5132942;27;20230;-54
2023/07/29 13:22:31;;;;;;;2.70;1.73;;;;;;;;;;5131721;27;20262;-55
2023/07/29 13:24:57;;;;;;;2.30;1.40;;;;;;;;;;5132663;27;20787;-56
2023/07/29 13:27:25;;;;;;;1.40;1.30;;;;;;;;;;5132489;27;20259;-56
2023/07/29 13:29:51;;;;;;;1.43;1.33;;;;;;;;;;5132570;27;20252;-56
2023/07/29 13:32:17;;;;;;;1.73;1.50;;;;;;;;;;5132199;27;20208;-55
2023/07/29 13:34:43;;;;;;;1.87;1.30;;;;;;;;;;5132830;27;20696;-56
2023/07/29 13:37:09;;;;;;;1.30;1.20;;;;;;;;;;5132525;27;20559;-54
2023/07/29 13:39:36;;;;;;;1.77;1.27;;;;;;;;;;5132553;27;20204;-54
2023/07/29 13:42:02;;;;;;;2.13;1.40;;;;;;;;;;5132190;27;20213;-56
2023/07/29 13:44:28;;;;;;;2.30;1.67;;;;;;;;;;5132477;27;20563;-55
2023/07/29 13:46:54;;;;;;;1.30;1.20;;;;;;;;;;5132068;27;20251;-55
2023/07/29 13:49:20;;;;;;;1.30;1.20;;;;;;;;;;5129983;27;20204;-56
2023/07/29 13:51:47;;;;;;;2.20;1.30;;;;;;;;;;5132114;27;20211;-53
2023/07/29 13:54:13;;;;;;;2.60;1.40;;;;;;;;;;5132448;27;20220;-56
2023/07/29 13:56:40;;;;;;;0.97;0.97;;;;;;;;;;5132320;27;20202;-54
2023/07/29 13:59:06;;;;;;;2.03;1.30;;;;;;;;;;5132094;27;20272;-53
2023/07/29 14:01:32;;;;;;;1.77;1.20;;;;;;;;;;5132057;27;20289;-53
2023/07/29 14:03:58;;;;;;;1.67;1.10;;;;;;;;;;5131981;27;20282;-54
2023/07/29 14:06:24;;;;;;;1.40;1.30;;;;;;;;;;5131376;27;20376;-54
2023/07/29 14:08:50;;;;;;;1.30;1.10;;;;;;;;;;5132125;27;20276;-54
2023/07/29 14:11:16;;;;;;;2.73;1.10;;;;;;;;;;5131831;27;20294;-55
2023/07/29 14:13:43;;;;;;;1.90;1.23;;;;;;;;;;5132227;27;20201;-55
2023/07/29 14:16:09;;;;;;;1.93;1.13;;;;;;;;;;5132075;27;20768;-55
2023/07/29 14:18:35;;;;;;;1.50;1.30;;;;;;;;;;5132940;27;20288;-55
2023/07/29 14:21:01;;;;;;;3.30;1.23;;;;;;;;;;5132628;27;20204;-55
2023/07/29 14:23:27;;;;;;;1.33;1.10;;;;;;;;;;5132651;27;20223;-55
2023/07/29 14:25:53;;;;;;;1.83;1.73;;;;;;;;;;5131796;27;20237;-55
2023/07/29 14:28:19;;;;;;;2.73;1.20;;;;;;;;;;5131406;27;20251;-55
2023/07/29 14:30:47;;;;;;;1.60;1.40;;;;;;;;;;5132172;27;20202;-55
2023/07/29 14:33:14;;;;;;;2.17;1.20;;;;;;;;;;5132134;27;20246;-55
2023/07/29 14:35:40;;;;;;;2.90;1.37;;;;;;;;;;5132738;27;20199;-55
2023/07/29 14:38:07;;;;;;;1.50;1.40;;;;;;;;;;5132123;27;20671;-55